Rimnicu Vilcea, Romania
Current Conditions -  °F | °C
As of 12:00 AM on Sunday 26 Oct 2014 (Local Time) from LRSB Reporting Station
Scattered Clouds Scattered Clouds  
Wind Chill: 32°   Ceiling: Unl
Heat Index: 36°   Visibility: 6mi
Dew Point: 21°   Wind: 5mph
Humidity: 56%   Direction: 120°ESE
Pressure: 30.3"   Gusts: NA
Location:  45.11°N, 24.38°E
Report Text: LRSB 252100Z 12004KT 9999 SCT040 02/M06 Q1026
Loading
Personal Weather Stations






























Interactive Weather Map
Tropical Storm Tracking
New forecast layout! Learn more

10-Day Weather Forecast

Advertisements
Track Severe Weather on mobile